aviador You're here:

EPLL Decoded Metar

LODZ in POLAND
Report Time2017-12-11 03:30:00
UTC Time2017-12-11 04:05:00
Flight Rules vfr VFR
Wind180° at 09 kt
W.Decomp.*RWY 25: 2.5 kt HW 8.7 kt LCW
W.Rank180° ranks 25
Current wind is above 180° avg. (5.7)
Visibility9999 m
Phenomena:Light Rain
Clouds:Few 017 Hf
Scattered 044 Hf
Expected CloudBase > 1,200 ft AGL from Temp-Dew spread
CeilingNone
Temp03°C (ISA -11)
Dew Point00°C (81% RH)
AAT-2.2°C
QNH0990 hPa
Density Alt171 ft
Elevation604 ft
Report Wrong Elevation
Raw Report
EPLL 110330Z 18009KT 9999 -RA FEW017 SCT044 03/M00 Q0990=

Extra information for EPLL:More info

Metar Taf Metar & Taf Last 4 Metars F.Rules Stats Wind Profile Meteogram Temp Stats Airport Information Weather charts Add Link Nearby VenuesMetar ALERT Operation Metar Decoded Social comments